createdAt,value
2023-03-30T00:01:02.736Z,18.80
2023-03-30T00:03:30.512Z,15.73
2023-03-30T00:06:05.372Z,15.90
2023-03-30T00:08:33.465Z,16.13
2023-03-30T00:11:06.487Z,19.33
2023-03-30T00:13:34.922Z,18.60
2023-03-30T00:16:03.680Z,26.60
2023-03-30T00:18:30.858Z,17.97
2023-03-30T00:21:03.134Z,13.93
2023-03-30T00:23:31.000Z,17.87
2023-03-30T00:25:58.616Z,22.33
2023-03-30T00:28:26.439Z,18.10
2023-03-30T00:30:53.883Z,17.80
2023-03-30T00:33:27.756Z,17.97
2023-03-30T00:36:04.938Z,15.63
2023-03-30T00:38:32.053Z,22.07
2023-03-30T00:41:02.059Z,19.17
2023-03-30T00:43:29.531Z,25.97
2023-03-30T00:45:57.904Z,17.57
2023-03-30T00:48:45.217Z,13.00
2023-03-30T00:51:14.089Z,24.40
2023-03-30T00:53:50.370Z,14.60
2023-03-30T00:56:23.090Z,13.93
2023-03-30T00:58:50.853Z,15.07
2023-03-30T01:01:25.976Z,17.73
2023-03-30T01:03:54.178Z,17.17
2023-03-30T01:06:24.546Z,22.40
2023-03-30T01:08:53.193Z,18.97
2023-03-30T01:11:21.307Z,16.93
2023-03-30T01:13:51.692Z,20.07
2023-03-30T01:16:44.226Z,15.73
2023-03-30T01:19:49.651Z,16.00
2023-03-30T01:23:07.489Z,19.80
2023-03-30T01:26:32.962Z,15.83
2023-03-30T01:29:37.139Z,17.07
2023-03-30T01:32:58.413Z,17.13
2023-03-30T01:36:10.577Z,24.83
2023-03-30T01:39:20.628Z,15.60
2023-03-30T01:45:19.205Z,16.63
2023-03-30T01:48:15.266Z,15.83
2023-03-30T01:51:01.892Z,19.73
2023-03-30T01:53:46.629Z,15.20
2023-03-30T01:56:36.278Z,18.80
2023-03-30T01:59:39.447Z,15.73
2023-03-30T02:05:06.167Z,24.40
2023-03-30T02:07:35.898Z,22.10
2023-03-30T02:10:08.245Z,17.70
2023-03-30T02:12:37.294Z,21.93
2023-03-30T02:15:08.974Z,20.80
2023-03-30T02:17:38.199Z,28.80
2023-03-30T02:20:09.543Z,23.77
2023-03-30T02:22:37.085Z,17.80
2023-03-30T02:25:05.638Z,20.83
2023-03-30T02:27:33.887Z,15.80
2023-03-30T02:30:01.180Z,19.47
2023-03-30T02:32:33.690Z,20.60
2023-03-30T02:35:37.152Z,22.07
2023-03-30T02:38:44.728Z,15.17
2023-03-30T02:41:49.326Z,17.77
2023-03-30T02:44:32.358Z,23.20
2023-03-30T02:47:26.145Z,23.53
2023-03-30T02:50:14.658Z,18.53
2023-03-30T02:52:59.296Z,30.83
2023-03-30T02:55:39.948Z,16.03
2023-03-30T02:58:26.833Z,22.60
2023-03-30T03:01:43.001Z,22.17
2023-03-30T03:04:18.271Z,22.20
2023-03-30T03:07:02.602Z,20.73
2023-03-30T03:09:30.849Z,18.23
2023-03-30T03:11:58.483Z,22.93
2023-03-30T03:14:30.792Z,22.33
2023-03-30T03:16:57.979Z,24.17
2023-03-30T03:19:32.500Z,22.80
2023-03-30T03:22:00.241Z,19.77
2023-03-30T03:24:29.839Z,21.87
2023-03-30T03:27:29.553Z,24.30
2023-03-30T03:30:08.423Z,23.50
2023-03-30T03:32:42.888Z,22.57
2023-03-30T03:35:10.541Z,25.90
2023-03-30T03:37:38.420Z,35.47
2023-03-30T03:40:06.746Z,20.50
2023-03-30T03:42:34.331Z,16.17
2023-03-30T03:45:09.790Z,26.07
2023-03-30T03:47:46.927Z,19.97
2023-03-30T03:50:14.254Z,21.00
2023-03-30T03:52:41.589Z,18.73
2023-03-30T03:55:09.515Z,24.23
2023-03-30T03:57:39.604Z,16.87
2023-03-30T04:00:15.786Z,18.80
2023-03-30T04:02:45.617Z,19.57
2023-03-30T04:05:13.533Z,21.23
2023-03-30T04:07:40.663Z,22.07
2023-03-30T04:10:08.619Z,18.50
2023-03-30T04:12:57.040Z,18.70
2023-03-30T04:15:46.681Z,14.33
2023-03-30T04:18:35.648Z,23.50
2023-03-30T04:21:17.780Z,17.87
2023-03-30T04:24:20.271Z,16.00
2023-03-30T04:27:10.263Z,32.70
2023-03-30T04:29:58.684Z,26.57
2023-03-30T04:32:47.302Z,19.40
2023-03-30T04:35:49.684Z,21.73
2023-03-30T04:38:42.951Z,29.50
2023-03-30T04:41:26.662Z,21.53
2023-03-30T04:44:12.865Z,21.07
2023-03-30T04:46:55.054Z,29.23
2023-03-30T04:49:45.360Z,19.43
2023-03-30T04:52:31.464Z,25.13
2023-03-30T04:55:25.665Z,21.00
2023-03-30T04:58:04.541Z,22.77
2023-03-30T05:00:58.447Z,21.83
2023-03-30T05:03:48.536Z,16.13
2023-03-30T05:06:42.143Z,20.90
2023-03-30T05:09:42.790Z,17.53
2023-03-30T05:12:45.202Z,17.90
2023-03-30T05:15:18.099Z,23.73
2023-03-30T05:18:14.433Z,19.30
2023-03-30T05:21:13.662Z,25.27
2023-03-30T05:24:12.360Z,24.70
2023-03-30T05:27:02.756Z,22.90
2023-03-30T05:32:28.698Z,17.43
2023-03-30T05:35:25.062Z,23.07
2023-03-30T05:38:04.954Z,23.03
2023-03-30T05:41:07.729Z,18.00
2023-03-30T05:43:52.630Z,17.80
2023-03-30T05:46:53.014Z,24.20
2023-03-30T05:49:43.630Z,20.07
2023-03-30T05:52:21.649Z,24.43
2023-03-30T05:55:16.851Z,18.20
2023-03-30T05:57:53.934Z,16.80
2023-03-30T06:00:45.070Z,17.67
2023-03-30T06:03:22.267Z,26.77
2023-03-30T06:05:49.525Z,16.80
2023-03-30T06:08:16.656Z,20.13
2023-03-30T06:10:52.740Z,21.70
2023-03-30T06:13:19.910Z,22.77
2023-03-30T06:15:51.012Z,15.40
2023-03-30T06:18:25.632Z,20.90
2023-03-30T06:20:58.216Z,31.63
2023-03-30T06:23:25.808Z,19.67
2023-03-30T06:25:55.952Z,21.80
2023-03-30T06:28:28.953Z,24.17
2023-03-30T06:30:56.312Z,23.07
2023-03-30T06:33:26.063Z,20.20
2023-03-30T06:35:57.336Z,23.33
2023-03-30T06:38:24.668Z,19.87
2023-03-30T06:40:53.554Z,18.80
2023-03-30T06:43:25.556Z,21.13
2023-03-30T06:46:09.536Z,18.33
2023-03-30T06:48:36.914Z,20.40
2023-03-30T06:51:36.128Z,15.40
2023-03-30T06:54:05.131Z,22.00
2023-03-30T06:56:32.291Z,28.77
2023-03-30T06:59:10.676Z,18.13
2023-03-30T07:01:57.996Z,13.93
2023-03-30T07:04:39.162Z,22.73
2023-03-30T07:07:29.534Z,17.57
2023-03-30T07:09:56.653Z,18.53
2023-03-30T07:12:24.153Z,18.70
2023-03-30T07:14:52.281Z,28.13
2023-03-30T07:17:19.401Z,24.60
2023-03-30T07:19:46.588Z,18.57
2023-03-30T07:22:13.791Z,19.67
2023-03-30T07:24:41.184Z,22.03
2023-03-30T07:27:08.858Z,23.27
2023-03-30T07:29:37.974Z,24.87
2023-03-30T07:32:05.431Z,25.33
2023-03-30T07:34:33.678Z,19.33
2023-03-30T07:37:01.804Z,17.93
2023-03-30T07:39:33.943Z,14.10
2023-03-30T07:42:04.564Z,18.53
2023-03-30T07:44:32.042Z,21.07
2023-03-30T07:47:04.382Z,21.83
2023-03-30T07:49:31.854Z,19.93
2023-03-30T07:51:59.373Z,22.53
2023-03-30T07:54:35.205Z,20.47
2023-03-30T07:57:17.255Z,22.10
2023-03-30T07:59:44.605Z,15.30
2023-03-30T08:02:25.704Z,20.97
2023-03-30T08:04:55.133Z,20.63
2023-03-30T08:07:32.445Z,18.90
2023-03-30T08:10:09.203Z,20.80
2023-03-30T08:12:37.520Z,14.77
2023-03-30T08:15:05.736Z,16.60
2023-03-30T08:17:32.860Z,19.80
2023-03-30T08:20:01.859Z,12.30
2023-03-30T08:22:29.015Z,22.33
2023-03-30T08:24:57.158Z,15.30
2023-03-30T08:27:24.299Z,16.30
2023-03-30T08:29:53.647Z,11.93
2023-03-30T08:32:20.845Z,16.43
2023-03-30T08:34:47.905Z,20.07
2023-03-30T08:37:15.023Z,12.33
2023-03-30T08:39:42.474Z,9.20
2023-03-30T08:42:47.539Z,11.87
2023-03-30T08:45:15.012Z,19.30
2023-03-30T08:47:46.163Z,21.03
2023-03-30T08:50:20.362Z,16.57
2023-03-30T08:52:47.791Z,13.80
2023-03-30T08:55:24.524Z,13.30
2023-03-30T08:58:16.879Z,10.27
2023-03-30T09:01:03.976Z,19.87
2023-03-30T09:03:45.741Z,17.70
2023-03-30T09:06:55.782Z,15.23
2023-03-30T09:09:28.714Z,10.13
2023-03-30T09:12:56.754Z,13.57
2023-03-30T09:15:33.667Z,16.33
2023-03-30T09:18:35.297Z,11.00
2023-03-30T09:21:06.783Z,13.70
2023-03-30T09:23:36.280Z,17.83
2023-03-30T09:45:21.884Z,15.73
2023-03-30T09:47:49.497Z,14.90
2023-03-30T09:50:25.236Z,13.53
2023-03-30T09:53:25.047Z,15.53
2023-03-30T09:56:11.287Z,19.00
2023-03-30T09:58:38.528Z,19.70
2023-03-30T10:01:14.823Z,17.57
2023-03-30T10:03:44.012Z,16.83
2023-03-30T10:06:19.541Z,14.60
2023-03-30T10:08:55.283Z,17.97
2023-03-30T10:11:42.837Z,15.70
2023-03-30T10:14:35.001Z,13.00
2023-03-30T10:17:03.895Z,15.30
2023-03-30T10:19:33.927Z,21.50
2023-03-30T10:22:06.803Z,22.13
2023-03-30T10:24:34.178Z,15.47
2023-03-30T10:27:13.738Z,20.90
2023-03-30T10:29:46.897Z,20.87
2023-03-30T10:32:29.536Z,17.97
2023-03-30T10:35:02.159Z,24.03
2023-03-30T10:37:39.161Z,21.40
2023-03-30T10:40:20.067Z,18.33
2023-03-30T10:42:51.180Z,21.30
2023-03-30T10:45:27.944Z,18.17
2023-03-30T10:48:31.244Z,20.30
2023-03-30T10:51:34.420Z,15.63
2023-03-30T10:54:18.948Z,11.33
2023-03-30T10:56:57.295Z,11.17
2023-03-30T11:00:14.780Z,16.63
2023-03-30T11:03:08.463Z,21.73
2023-03-30T11:05:40.442Z,22.50
2023-03-30T11:08:23.037Z,21.30
2023-03-30T11:10:54.536Z,12.87
2023-03-30T11:13:41.918Z,17.70
2023-03-30T11:16:25.499Z,21.00
2023-03-30T11:19:04.826Z,18.63
2023-03-30T11:21:44.576Z,17.27
2023-03-30T11:24:22.976Z,16.67
2023-03-30T11:27:20.186Z,19.47
2023-03-30T11:29:53.802Z,21.17
2023-03-30T11:32:58.061Z,15.50
2023-03-30T11:36:03.583Z,16.53
2023-03-30T11:38:51.980Z,14.90
2023-03-30T11:41:24.287Z,18.23
2023-03-30T11:43:56.066Z,22.53
2023-03-30T11:46:33.764Z,20.07
2023-03-30T11:49:56.253Z,19.63
2023-03-30T11:52:37.202Z,19.17
2023-03-30T11:55:34.831Z,22.70
2023-03-30T11:58:17.735Z,23.77
2023-03-30T12:01:16.547Z,13.80
2023-03-30T12:03:47.239Z,18.47
2023-03-30T12:07:00.696Z,13.87
2023-03-30T12:09:54.863Z,14.63
2023-03-30T12:12:34.708Z,9.60
2023-03-30T12:15:40.491Z,11.00
2023-03-30T12:18:49.993Z,13.30
2023-03-30T12:21:39.245Z,14.67
2023-03-30T12:24:50.685Z,13.20
2023-03-30T12:27:18.021Z,17.83
2023-03-30T12:32:28.391Z,12.87
2023-03-30T12:34:57.343Z,12.10
2023-03-30T12:37:33.692Z,11.57
2023-03-30T12:40:22.824Z,10.30
2023-03-30T12:43:06.147Z,12.90
2023-03-30T12:45:34.280Z,15.27
2023-03-30T12:48:36.764Z,10.33
2023-03-30T12:51:58.316Z,11.93
2023-03-30T12:55:11.860Z,11.93
2023-03-30T12:58:26.953Z,13.80
2023-03-30T13:01:35.076Z,11.87
2023-03-30T13:04:17.505Z,11.60
2023-03-30T13:06:56.893Z,14.70
2023-03-30T13:09:59.805Z,17.13
2023-03-30T13:12:42.807Z,15.37
2023-03-30T13:29:15.778Z,11.33
2023-03-30T13:35:27.384Z,11.13
2023-03-30T13:38:29.402Z,6.67
2023-03-30T13:41:40.969Z,9.93
2023-03-30T13:44:43.274Z,15.83
2023-03-30T13:47:57.768Z,8.43
2023-03-30T13:50:28.797Z,10.57
2023-03-30T13:52:59.298Z,11.63
2023-03-30T13:55:33.539Z,8.53
2023-03-30T13:58:20.504Z,11.87
2023-03-30T14:00:52.705Z,14.43
2023-03-30T14:03:44.507Z,12.53
2023-03-30T14:06:22.928Z,10.70
2023-03-30T14:08:58.777Z,7.37
2023-03-30T14:11:37.487Z,9.73
2023-03-30T14:14:05.442Z,10.90
2023-03-30T14:16:36.794Z,12.10
2023-03-30T14:19:38.343Z,8.57
2023-03-30T14:22:14.438Z,9.13
2023-03-30T14:25:07.050Z,12.17
2023-03-30T14:27:38.648Z,8.30
2023-03-30T14:30:24.204Z,9.67
2023-03-30T14:33:12.601Z,9.43
2023-03-30T14:35:45.854Z,14.93
2023-03-30T14:38:22.590Z,7.17
2023-03-30T14:40:51.442Z,7.43
2023-03-30T14:43:24.797Z,8.90
2023-03-30T14:45:54.230Z,5.93
2023-03-30T14:48:30.107Z,6.27
2023-03-30T14:50:57.452Z,8.37
2023-03-30T14:53:27.629Z,6.00
2023-03-30T14:55:58.279Z,9.30
2023-03-30T14:58:27.689Z,6.93
2023-03-30T15:00:58.733Z,8.43
2023-03-30T15:03:33.933Z,7.73
2023-03-30T15:06:05.258Z,8.07
2023-03-30T15:08:36.625Z,13.27
2023-03-30T15:11:12.934Z,22.53
2023-03-30T15:13:44.298Z,12.33
2023-03-30T15:16:18.310Z,13.50
2023-03-30T15:18:45.831Z,13.67
2023-03-30T15:21:14.699Z,10.57
2023-03-30T15:23:44.903Z,10.93
2023-03-30T15:26:12.872Z,16.10
2023-03-30T15:29:00.637Z,11.10
2023-03-30T15:31:28.802Z,7.93
2023-03-30T15:33:58.132Z,9.80
2023-03-30T15:36:37.710Z,8.60
2023-03-30T15:39:23.401Z,11.87
2023-03-30T15:42:01.518Z,7.63
2023-03-30T15:44:29.589Z,9.13
2023-03-30T15:46:58.406Z,9.83
2023-03-30T15:49:40.509Z,8.30
2023-03-30T15:52:38.002Z,7.27
2023-03-30T15:55:28.102Z,13.23
2023-03-30T15:57:55.881Z,8.63
2023-03-30T16:00:27.471Z,10.80
2023-03-30T16:03:02.052Z,10.87
2023-03-30T16:05:32.125Z,9.03
2023-03-30T16:07:59.349Z,10.00
2023-03-30T16:10:30.380Z,9.77
2023-03-30T16:12:59.302Z,9.20
2023-03-30T16:15:29.160Z,9.33
2023-03-30T16:17:56.397Z,8.60
2023-03-30T16:20:26.319Z,6.00
2023-03-30T16:22:53.645Z,12.27
2023-03-30T16:25:34.132Z,13.70
2023-03-30T16:28:16.332Z,9.43
2023-03-30T16:30:46.448Z,6.87
2023-03-30T16:33:13.973Z,6.97
2023-03-30T16:35:41.388Z,8.70
2023-03-30T16:38:20.429Z,15.53
2023-03-30T16:40:58.552Z,8.40
2023-03-30T16:43:27.352Z,8.83
2023-03-30T16:45:54.555Z,7.77
2023-03-30T16:48:22.045Z,8.03
2023-03-30T16:50:56.796Z,9.03
2023-03-30T16:53:24.392Z,14.57
2023-03-30T16:55:51.574Z,11.37
2023-03-30T16:58:18.690Z,10.87
2023-03-30T17:00:48.680Z,11.40
2023-03-30T17:03:16.039Z,7.47
2023-03-30T17:05:48.345Z,6.20
2023-03-30T17:08:24.691Z,8.37
2023-03-30T17:10:53.251Z,7.53
2023-03-30T17:13:20.984Z,12.83
2023-03-30T17:15:48.196Z,8.97
2023-03-30T17:18:21.480Z,11.50
2023-03-30T17:21:16.309Z,8.87
2023-03-30T17:23:44.986Z,7.67
2023-03-30T17:26:12.940Z,10.83
2023-03-30T17:28:40.440Z,9.30
2023-03-30T17:31:17.296Z,7.70
2023-03-30T17:33:45.824Z,11.00
2023-03-30T17:36:22.395Z,10.77
2023-03-30T17:38:50.892Z,7.50
2023-03-30T17:41:19.508Z,8.13
2023-03-30T17:43:48.165Z,12.40
2023-03-30T17:46:17.872Z,13.93
2023-03-30T17:48:45.738Z,8.87
2023-03-30T17:51:13.271Z,7.73
2023-03-30T17:53:40.595Z,12.60
2023-03-30T17:56:07.723Z,7.50
2023-03-30T17:58:36.468Z,9.63
2023-03-30T18:01:07.772Z,12.07
2023-03-30T18:03:35.641Z,10.43
2023-03-30T18:06:03.192Z,11.40
2023-03-30T18:08:30.512Z,8.43
2023-03-30T18:10:59.403Z,10.40
2023-03-30T18:13:28.154Z,6.77
2023-03-30T18:15:56.882Z,13.83
2023-03-30T18:18:26.368Z,10.83
2023-03-30T18:20:59.004Z,9.13
2023-03-30T18:23:26.198Z,7.23
2023-03-30T18:25:53.460Z,9.47
2023-03-30T18:28:23.241Z,8.63
2023-03-30T18:30:53.258Z,12.13
2023-03-30T18:33:21.416Z,7.73
2023-03-30T18:35:50.582Z,9.87
2023-03-30T18:38:20.042Z,8.73
2023-03-30T18:40:50.029Z,12.97
2023-03-30T18:43:17.550Z,5.03
2023-03-30T18:45:46.549Z,6.87
2023-03-30T18:48:17.328Z,9.00
2023-03-30T18:50:49.117Z,8.30
2023-03-30T18:53:18.583Z,11.43
2023-03-30T18:55:51.516Z,10.90
2023-03-30T18:58:21.470Z,7.77
2023-03-30T19:00:49.813Z,11.13
2023-03-30T19:03:17.850Z,7.97
2023-03-30T19:05:45.636Z,7.20
2023-03-30T19:08:14.464Z,9.40
2023-03-30T19:10:43.134Z,11.40
2023-03-30T19:13:17.100Z,8.40
2023-03-30T19:15:45.577Z,11.37
2023-03-30T19:18:13.962Z,10.67
2023-03-30T19:20:42.164Z,10.97
2023-03-30T19:23:12.734Z,10.70
2023-03-30T19:25:41.327Z,7.63
2023-03-30T19:28:09.618Z,8.10
2023-03-30T19:30:39.573Z,8.20
2023-03-30T19:33:09.823Z,8.80
2023-03-30T19:35:39.061Z,10.67
2023-03-30T19:38:06.160Z,10.57
2023-03-30T19:40:33.304Z,15.13
2023-03-30T19:43:00.396Z,9.43
2023-03-30T19:45:27.587Z,8.07
2023-03-30T19:47:54.828Z,9.23
2023-03-30T19:50:25.014Z,15.00
2023-03-30T19:52:52.527Z,8.73
2023-03-30T19:55:20.306Z,7.33
2023-03-30T19:57:47.430Z,10.87
2023-03-30T20:00:17.373Z,9.10
2023-03-30T20:02:47.490Z,12.00
2023-03-30T20:05:15.963Z,9.80
2023-03-30T20:07:46.090Z,9.90
2023-03-30T20:10:19.842Z,12.43
2023-03-30T20:12:48.108Z,8.60
2023-03-30T20:15:15.759Z,12.63
2023-03-30T20:17:43.142Z,8.80
2023-03-30T20:20:12.951Z,11.17
2023-03-30T20:22:42.173Z,13.17
2023-03-30T20:25:11.742Z,10.10
2023-03-30T20:27:39.003Z,12.10
2023-03-30T20:30:07.303Z,15.77
2023-03-30T20:32:35.645Z,8.07
2023-03-30T20:35:03.450Z,12.20
2023-03-30T20:37:30.876Z,12.93
2023-03-30T20:40:03.681Z,12.23
2023-03-30T20:42:32.472Z,10.07
2023-03-30T20:45:01.229Z,12.87
2023-03-30T20:47:30.583Z,10.97
2023-03-30T20:49:59.112Z,10.83
2023-03-30T20:52:26.962Z,10.23
2023-03-30T20:54:54.556Z,11.57
2023-03-30T20:57:22.441Z,10.27
2023-03-30T20:59:52.719Z,12.40
2023-03-30T21:02:20.529Z,9.67
2023-03-30T21:04:49.613Z,13.70
2023-03-30T21:07:18.214Z,11.63
2023-03-30T21:09:45.515Z,9.73
2023-03-30T21:12:12.870Z,11.03
2023-03-30T21:14:39.932Z,8.90
2023-03-30T21:17:07.412Z,11.73
2023-03-30T21:19:34.664Z,13.07
2023-03-30T21:22:01.970Z,11.53
2023-03-30T21:24:29.520Z,9.20
2023-03-30T21:26:56.641Z,11.60
2023-03-30T21:29:23.953Z,10.50
2023-03-30T21:31:51.292Z,11.40
2023-03-30T21:34:18.894Z,8.13
2023-03-30T21:36:46.549Z,8.83
2023-03-30T21:39:14.167Z,14.07
2023-03-30T21:41:41.734Z,11.23
2023-03-30T21:44:08.794Z,10.63
2023-03-30T21:46:35.948Z,9.77
2023-03-30T21:49:03.225Z,11.47
2023-03-30T21:51:31.555Z,11.03
2023-03-30T21:53:59.311Z,7.03
2023-03-30T21:56:29.675Z,14.27
2023-03-30T21:58:57.414Z,12.53
2023-03-30T22:01:25.202Z,13.47
2023-03-30T22:03:53.711Z,12.97
2023-03-30T22:06:21.674Z,15.70
2023-03-30T22:08:48.910Z,11.73
2023-03-30T22:11:18.628Z,13.07
2023-03-30T22:13:48.515Z,8.17
2023-03-30T22:16:32.232Z,13.87
2023-03-30T22:18:59.543Z,13.13
2023-03-30T22:21:34.594Z,11.33
2023-03-30T22:24:07.395Z,13.13
2023-03-30T22:26:35.771Z,10.47
2023-03-30T22:29:03.005Z,14.53
2023-03-30T22:31:30.490Z,15.40
2023-03-30T22:33:57.712Z,6.67
2023-03-30T22:36:30.146Z,10.17
2023-03-30T22:38:58.962Z,9.63
2023-03-30T22:41:26.760Z,14.97
2023-03-30T22:43:56.203Z,8.77
2023-03-30T22:46:25.442Z,12.13
2023-03-30T22:48:55.736Z,10.43
2023-03-30T22:51:26.778Z,11.70
2023-03-30T22:53:59.486Z,16.80
2023-03-30T22:56:28.555Z,10.40
2023-03-30T22:58:56.144Z,13.63
2023-03-30T23:01:23.845Z,12.87
2023-03-30T23:03:53.105Z,11.57
2023-03-30T23:06:20.495Z,14.80
2023-03-30T23:08:48.850Z,14.57
2023-03-30T23:11:16.706Z,6.80
2023-03-30T23:13:43.944Z,12.30
2023-03-30T23:16:11.189Z,14.53
2023-03-30T23:18:39.021Z,9.87
2023-03-30T23:21:07.814Z,12.43
2023-03-30T23:23:38.733Z,14.43
2023-03-30T23:26:10.664Z,10.23
2023-03-30T23:28:40.425Z,14.00
2023-03-30T23:31:13.037Z,13.60
2023-03-30T23:33:41.117Z,14.17
2023-03-30T23:36:09.753Z,9.93
2023-03-30T23:38:37.622Z,13.90
2023-03-30T23:41:06.261Z,10.97
2023-03-30T23:43:33.529Z,16.43
2023-03-30T23:46:00.759Z,10.77
2023-03-30T23:48:27.947Z,10.43
2023-03-30T23:50:56.878Z,15.23
2023-03-30T23:53:25.139Z,9.23
2023-03-30T23:55:52.685Z,10.67
2023-03-30T23:58:20.077Z,9.20
